createdAt,value
2017-11-29T00:00:55.275Z,26.37
2017-11-29T00:03:21.721Z,24.90
2017-11-29T00:05:48.331Z,25.17
2017-11-29T00:08:15.017Z,24.37
2017-11-29T00:10:41.612Z,25.80
2017-11-29T00:13:08.237Z,25.93
2017-11-29T00:15:34.695Z,27.50
2017-11-29T00:18:01.334Z,26.70
2017-11-29T00:20:28.133Z,29.33
2017-11-29T00:22:54.612Z,29.10
2017-11-29T00:25:21.045Z,26.53
2017-11-29T00:27:47.680Z,26.00
2017-11-29T00:30:14.305Z,28.30
2017-11-29T00:32:40.715Z,27.40
2017-11-29T00:35:07.172Z,24.50
2017-11-29T00:37:33.674Z,25.70
2017-11-29T00:40:00.064Z,23.53
2017-11-29T00:42:26.680Z,26.30
2017-11-29T00:44:53.330Z,26.27
2017-11-29T00:47:19.551Z,25.17
2017-11-29T00:49:45.998Z,23.37
2017-11-29T00:52:12.623Z,20.50
2017-11-29T00:54:39.270Z,22.83
2017-11-29T00:57:05.882Z,23.73
2017-11-29T00:59:32.297Z,21.93
2017-11-29T01:01:58.767Z,20.60
2017-11-29T01:04:25.213Z,22.97
2017-11-29T01:06:51.700Z,21.07
2017-11-29T01:09:18.074Z,22.03
2017-11-29T01:11:44.584Z,21.50
2017-11-29T01:14:11.100Z,19.20
2017-11-29T01:16:37.539Z,20.43
2017-11-29T01:19:04.207Z,17.60
2017-11-29T01:21:30.854Z,17.70
2017-11-29T01:23:57.467Z,19.33
2017-11-29T01:26:24.131Z,19.63
2017-11-29T01:28:50.770Z,18.63
2017-11-29T01:31:17.409Z,17.30
2017-11-29T01:33:44.031Z,18.47
2017-11-29T01:36:10.426Z,18.30
2017-11-29T01:38:36.868Z,19.17
2017-11-29T01:41:03.551Z,20.20
2017-11-29T01:43:30.173Z,21.20
2017-11-29T01:45:56.592Z,22.30
2017-11-29T01:48:23.262Z,21.73
2017-11-29T01:50:49.749Z,22.40
2017-11-29T01:53:16.156Z,21.90
2017-11-29T01:55:42.754Z,18.77
2017-11-29T01:58:09.381Z,18.20
2017-11-29T02:00:35.792Z,18.70
2017-11-29T02:03:02.477Z,19.17
2017-11-29T02:05:29.101Z,16.93
2017-11-29T02:07:55.751Z,17.87
2017-11-29T02:10:22.233Z,17.63
2017-11-29T02:12:48.677Z,16.83
2017-11-29T02:15:15.120Z,25.93
2017-11-29T02:17:41.659Z,19.87
2017-11-29T02:20:08.076Z,36.00
2017-11-29T02:22:34.518Z,19.17
2017-11-29T02:25:01.195Z,18.17
2017-11-29T02:27:27.701Z,18.10
2017-11-29T02:29:54.060Z,16.63
2017-11-29T02:32:20.502Z,18.43
2017-11-29T02:34:47.135Z,17.63
2017-11-29T02:37:13.773Z,17.93
2017-11-29T02:39:40.483Z,18.03
2017-11-29T02:42:07.002Z,19.87
2017-11-29T02:44:33.443Z,16.17
2017-11-29T02:47:00.126Z,18.77
2017-11-29T02:49:26.728Z,17.27
2017-11-29T02:51:53.144Z,17.83
2017-11-29T02:54:19.831Z,20.40
2017-11-29T02:56:46.325Z,18.17
2017-11-29T02:59:12.900Z,19.20
2017-11-29T03:01:39.540Z,18.30
2017-11-29T03:04:06.150Z,17.97
2017-11-29T03:06:32.590Z,19.10
2017-11-29T03:08:59.249Z,21.17
2017-11-29T03:11:25.625Z,20.33
2017-11-29T03:13:52.066Z,17.80
2017-11-29T03:16:18.755Z,19.10
2017-11-29T03:18:45.393Z,20.60
2017-11-29T03:21:11.918Z,21.07
2017-11-29T03:23:38.474Z,20.03
2017-11-29T03:26:04.951Z,20.20
2017-11-29T03:28:31.392Z,20.33
2017-11-29T03:30:57.838Z,19.63
2017-11-29T03:33:24.353Z,19.40
2017-11-29T03:35:50.693Z,20.47
2017-11-29T03:38:17.164Z,21.10
2017-11-29T03:40:43.552Z,22.53
2017-11-29T03:43:09.992Z,20.57
2017-11-29T03:45:36.436Z,21.87
2017-11-29T03:48:02.854Z,21.33
2017-11-29T03:50:29.438Z,19.90
2017-11-29T03:52:56.074Z,18.30
2017-11-29T03:55:22.699Z,19.00
2017-11-29T03:57:49.340Z,19.70
2017-11-29T04:00:15.985Z,20.70
2017-11-29T04:02:42.500Z,20.13
2017-11-29T04:05:09.018Z,19.07
2017-11-29T04:07:35.698Z,23.03
2017-11-29T04:10:02.325Z,21.23
2017-11-29T04:12:28.720Z,20.27
2017-11-29T04:14:55.184Z,17.80
2017-11-29T04:17:21.435Z,17.47
2017-11-29T04:19:47.701Z,19.67
2017-11-29T04:22:14.285Z,18.77
2017-11-29T04:24:40.939Z,20.63
2017-11-29T04:27:07.577Z,18.43
2017-11-29T04:29:34.204Z,19.47
2017-11-29T04:32:00.624Z,17.90
2017-11-29T04:34:27.044Z,19.10
2017-11-29T04:36:53.719Z,20.10
2017-11-29T04:39:20.356Z,20.53
2017-11-29T04:41:47.037Z,19.17
2017-11-29T04:44:13.633Z,20.40
2017-11-29T04:46:40.253Z,18.67
2017-11-29T04:49:06.668Z,19.50
2017-11-29T04:51:33.331Z,21.40
2017-11-29T04:53:59.754Z,21.17
2017-11-29T04:56:26.168Z,22.00
2017-11-29T04:58:52.633Z,19.60
2017-11-29T05:01:18.881Z,19.03
2017-11-29T05:03:45.369Z,20.43
2017-11-29T05:06:11.810Z,20.90
2017-11-29T05:08:38.175Z,18.60
2017-11-29T05:11:04.813Z,23.00
2017-11-29T05:13:31.460Z,21.50
2017-11-29T05:15:58.074Z,27.47
2017-11-29T05:18:24.494Z,19.50
2017-11-29T05:20:51.056Z,19.60
2017-11-29T05:23:17.526Z,21.40
2017-11-29T05:25:44.116Z,22.13
2017-11-29T05:28:10.531Z,22.50
2017-11-29T05:30:36.999Z,26.40
2017-11-29T05:33:03.635Z,22.33
2017-11-29T05:35:30.064Z,23.40
2017-11-29T05:37:56.380Z,22.50
2017-11-29T05:40:22.794Z,23.10
2017-11-29T05:42:49.366Z,21.77
2017-11-29T05:45:15.852Z,31.20
2017-11-29T05:47:42.387Z,34.00
2017-11-29T05:50:08.735Z,23.73
2017-11-29T05:52:35.153Z,23.17
2017-11-29T05:55:01.599Z,22.17
2017-11-29T05:57:28.035Z,21.27
2017-11-29T05:59:54.453Z,23.27
2017-11-29T06:02:20.894Z,22.13
2017-11-29T06:04:47.304Z,23.93
2017-11-29T06:07:13.851Z,24.10
2017-11-29T06:09:40.292Z,26.90
2017-11-29T06:12:06.637Z,24.73
2017-11-29T06:14:33.152Z,23.50
2017-11-29T06:16:59.599Z,25.87
2017-11-29T06:19:26.057Z,23.60
2017-11-29T06:21:52.478Z,21.43
2017-11-29T06:24:19.218Z,18.57
2017-11-29T06:26:45.639Z,18.13
2017-11-29T06:29:13.423Z,16.13
2017-11-29T06:31:39.967Z,15.00
2017-11-29T06:34:06.387Z,17.27
2017-11-29T06:36:33.051Z,17.00
2017-11-29T06:38:59.670Z,16.97
2017-11-29T06:41:26.088Z,16.53
2017-11-29T06:43:52.629Z,17.53
2017-11-29T06:46:19.099Z,15.70
2017-11-29T06:48:45.486Z,16.73
2017-11-29T06:51:11.927Z,19.90
2017-11-29T06:53:38.290Z,24.70
2017-11-29T06:56:04.912Z,20.13
2017-11-29T06:58:31.569Z,21.40
2017-11-29T07:00:58.047Z,21.00
2017-11-29T07:03:24.487Z,17.77
2017-11-29T07:05:50.929Z,20.30
2017-11-29T07:08:17.370Z,15.10
2017-11-29T07:10:43.938Z,14.60
2017-11-29T07:13:10.429Z,18.27
2017-11-29T07:15:36.872Z,18.03
2017-11-29T07:18:03.310Z,17.90
2017-11-29T07:20:29.731Z,18.50
2017-11-29T07:22:56.172Z,18.33
2017-11-29T07:25:22.688Z,22.00
2017-11-29T07:27:49.129Z,20.23
2017-11-29T07:30:15.573Z,18.20
2017-11-29T07:32:41.837Z,18.23
2017-11-29T07:35:08.456Z,17.73
2017-11-29T07:37:34.895Z,17.67
2017-11-29T07:40:01.297Z,20.40
2017-11-29T07:42:27.984Z,17.80
2017-11-29T07:44:54.598Z,19.47
2017-11-29T07:47:21.037Z,17.40
2017-11-29T07:49:47.458Z,12.97
2017-11-29T07:52:14.025Z,10.80
2017-11-29T07:54:40.512Z,13.50
2017-11-29T07:57:06.890Z,13.23
2017-11-29T07:59:33.525Z,15.60
2017-11-29T08:02:00.169Z,14.93
2017-11-29T08:04:26.785Z,15.87
2017-11-29T08:06:53.121Z,16.37
2017-11-29T08:09:19.617Z,17.30
2017-11-29T08:11:46.059Z,18.40
2017-11-29T08:14:12.500Z,16.03
2017-11-29T08:16:38.941Z,16.47
2017-11-29T08:19:05.583Z,17.57
2017-11-29T08:21:32.028Z,14.10
2017-11-29T08:23:58.473Z,16.13
2017-11-29T08:26:24.985Z,17.70
2017-11-29T08:28:51.503Z,13.83
2017-11-29T08:31:17.968Z,13.30
2017-11-29T08:33:44.620Z,13.60
2017-11-29T08:36:11.053Z,11.30
2017-11-29T08:38:37.544Z,12.77
2017-11-29T08:41:03.986Z,10.83
2017-11-29T08:43:30.404Z,9.90
2017-11-29T08:45:56.991Z,9.53
2017-11-29T08:48:23.492Z,9.20
2017-11-29T08:50:49.929Z,8.63
2017-11-29T08:53:16.293Z,8.77
2017-11-29T08:55:42.914Z,8.80
2017-11-29T08:58:09.548Z,7.90
2017-11-29T09:00:35.949Z,9.27
2017-11-29T09:03:02.415Z,8.80
2017-11-29T09:05:28.830Z,8.87
2017-11-29T09:07:55.174Z,8.63
2017-11-29T09:10:21.693Z,8.27
2017-11-29T09:12:48.132Z,6.73
2017-11-29T09:15:14.404Z,7.30
2017-11-29T09:17:41.018Z,7.03
2017-11-29T09:20:07.659Z,6.67
2017-11-29T09:22:34.077Z,7.10
2017-11-29T09:25:00.749Z,6.73
2017-11-29T09:27:27.180Z,7.40
2017-11-29T09:29:53.612Z,8.07
2017-11-29T09:32:20.120Z,8.03
2017-11-29T09:34:46.535Z,6.87
2017-11-29T09:37:12.977Z,7.80
2017-11-29T09:39:39.522Z,9.63
2017-11-29T09:42:05.936Z,8.70
2017-11-29T09:44:32.218Z,10.00
2017-11-29T09:46:58.844Z,9.80
2017-11-29T09:49:25.317Z,10.83
2017-11-29T09:51:51.805Z,10.90
2017-11-29T09:54:18.322Z,5.73
2017-11-29T09:56:44.738Z,9.10
2017-11-29T09:59:11.082Z,5.77
2017-11-29T10:01:37.524Z,5.37
2017-11-29T10:04:03.887Z,5.13
2017-11-29T10:06:30.525Z,4.40
2017-11-29T10:08:56.926Z,4.10
2017-11-29T10:11:23.594Z,5.30
2017-11-29T10:13:50.083Z,4.13
2017-11-29T10:16:16.673Z,5.67
2017-11-29T10:18:43.307Z,5.60
2017-11-29T10:21:09.852Z,6.33
2017-11-29T10:23:36.326Z,4.10
2017-11-29T10:26:02.603Z,5.53
2017-11-29T10:28:29.109Z,5.30
2017-11-29T10:30:55.531Z,6.23
2017-11-29T10:33:21.967Z,5.40
2017-11-29T10:35:48.410Z,5.40
2017-11-29T10:38:14.831Z,6.67
2017-11-29T10:40:41.413Z,5.47
2017-11-29T10:43:08.052Z,6.27
2017-11-29T10:45:34.653Z,5.90
2017-11-29T10:48:00.917Z,7.97
2017-11-29T10:50:27.556Z,8.30
2017-11-29T10:52:54.195Z,6.20
2017-11-29T10:55:20.624Z,7.43
2017-11-29T10:57:46.828Z,6.70
2017-11-29T11:00:13.289Z,7.17
2017-11-29T11:02:39.897Z,4.40
2017-11-29T11:05:06.317Z,4.63
2017-11-29T11:07:33.000Z,3.80
2017-11-29T11:09:59.254Z,4.90
2017-11-29T11:12:25.653Z,7.90
2017-11-29T11:14:52.280Z,4.40
2017-11-29T11:17:18.701Z,5.00
2017-11-29T11:19:45.120Z,5.27
2017-11-29T11:22:11.807Z,6.57
2017-11-29T11:24:38.014Z,5.53
2017-11-29T11:27:04.253Z,4.67
2017-11-29T11:29:30.901Z,4.13
2017-11-29T11:31:57.538Z,4.00
2017-11-29T11:34:24.448Z,4.20
2017-11-29T11:36:50.815Z,3.70
2017-11-29T11:39:17.431Z,4.50
2017-11-29T11:41:44.101Z,6.00
2017-11-29T11:44:10.367Z,6.23
2017-11-29T11:46:36.804Z,4.07
2017-11-29T11:49:03.250Z,4.20
2017-11-29T11:51:29.791Z,3.50
2017-11-29T11:53:56.066Z,4.40
2017-11-29T11:56:22.695Z,3.80
2017-11-29T11:58:49.293Z,3.67
2017-11-29T12:01:15.735Z,4.10
2017-11-29T12:03:42.153Z,3.33
2017-11-29T12:06:08.836Z,3.53
2017-11-29T12:08:35.476Z,3.60
2017-11-29T12:11:01.981Z,3.80
2017-11-29T12:13:28.496Z,3.53
2017-11-29T12:15:54.963Z,4.10
2017-11-29T12:18:21.382Z,3.00
2017-11-29T12:20:48.044Z,6.47
2017-11-29T12:23:14.439Z,4.90
2017-11-29T12:25:40.883Z,3.80
2017-11-29T12:28:07.301Z,3.70
2017-11-29T12:30:33.742Z,4.80
2017-11-29T12:33:00.109Z,4.63
2017-11-29T12:35:26.750Z,4.07
2017-11-29T12:37:53.402Z,4.73
2017-11-29T12:40:19.884Z,4.23
2017-11-29T12:42:46.157Z,3.67
2017-11-29T12:45:12.688Z,3.20
2017-11-29T12:47:39.186Z,3.53
2017-11-29T12:50:05.759Z,4.13
2017-11-29T12:52:32.371Z,3.03
2017-11-29T12:54:58.787Z,3.27
2017-11-29T12:57:25.269Z,3.33
2017-11-29T12:59:51.747Z,4.27
2017-11-29T13:02:18.188Z,3.70
2017-11-29T13:04:44.733Z,4.20
2017-11-29T13:07:11.173Z,2.53
2017-11-29T13:09:37.592Z,4.00
2017-11-29T13:12:04.279Z,3.03
2017-11-29T13:14:30.775Z,3.40
2017-11-29T13:16:57.292Z,3.40
2017-11-29T13:19:23.735Z,4.07
2017-11-29T13:21:50.176Z,3.50
2017-11-29T13:24:16.516Z,3.03
2017-11-29T13:26:42.934Z,2.80
2017-11-29T13:29:09.376Z,3.20
2017-11-29T13:31:35.952Z,5.50
2017-11-29T13:34:02.387Z,9.40
2017-11-29T13:36:29.004Z,5.93
2017-11-29T13:38:55.645Z,3.90
2017-11-29T13:41:22.301Z,3.97
2017-11-29T13:43:48.780Z,4.60
2017-11-29T13:46:15.225Z,4.83
2017-11-29T13:48:41.666Z,4.03
2017-11-29T13:51:08.075Z,4.10
2017-11-29T13:53:34.651Z,4.30
2017-11-29T13:56:01.312Z,4.57
2017-11-29T13:58:27.931Z,5.47
2017-11-29T14:00:54.352Z,6.90
2017-11-29T14:03:21.014Z,6.83
2017-11-29T14:05:47.661Z,5.53
2017-11-29T14:08:14.277Z,9.50
2017-11-29T14:10:40.733Z,10.37
2017-11-29T14:13:07.363Z,7.97
2017-11-29T14:15:33.904Z,6.93
2017-11-29T14:18:00.392Z,8.30
2017-11-29T14:20:26.859Z,9.03
2017-11-29T14:22:53.079Z,9.73
2017-11-29T14:25:19.419Z,11.57
2017-11-29T14:27:45.838Z,8.17
2017-11-29T14:30:12.251Z,8.47
2017-11-29T14:32:38.701Z,8.80
2017-11-29T14:35:05.136Z,11.10
2017-11-29T14:37:31.503Z,8.63
2017-11-29T14:39:57.845Z,10.67
2017-11-29T14:42:24.314Z,9.63
2017-11-29T14:44:50.654Z,8.60
2017-11-29T14:47:17.092Z,8.33
2017-11-29T14:49:43.532Z,12.57
2017-11-29T14:52:09.955Z,12.77
2017-11-29T14:54:36.393Z,13.00
2017-11-29T14:57:02.811Z,12.00
2017-11-29T14:59:29.046Z,11.53
2017-11-29T15:01:55.616Z,10.97
2017-11-29T15:04:22.268Z,27.93
2017-11-29T15:06:48.780Z,20.27
2017-11-29T15:09:15.135Z,12.10
2017-11-29T15:11:41.760Z,14.13
2017-11-29T15:14:08.180Z,9.43
2017-11-29T15:16:34.638Z,9.60
2017-11-29T15:19:01.037Z,10.53
2017-11-29T15:21:27.478Z,9.87
2017-11-29T15:23:54.146Z,10.30
2017-11-29T15:26:20.393Z,12.80
2017-11-29T15:28:46.858Z,12.40
2017-11-29T15:31:13.298Z,12.80
2017-11-29T15:33:39.740Z,15.30
2017-11-29T15:36:06.255Z,11.30
2017-11-29T15:38:32.940Z,40.07
2017-11-29T15:40:59.587Z,19.80
2017-11-29T15:43:26.080Z,12.80
2017-11-29T15:45:52.621Z,10.77
2017-11-29T15:48:19.063Z,10.97
2017-11-29T15:50:45.481Z,13.93
2017-11-29T15:53:12.165Z,12.50
2017-11-29T15:55:38.804Z,16.13
2017-11-29T15:58:05.429Z,10.00
2017-11-29T16:00:31.890Z,10.87
2017-11-29T16:02:58.511Z,10.90
2017-11-29T16:05:25.150Z,11.23
2017-11-29T16:07:51.772Z,9.47
2017-11-29T16:10:18.213Z,8.73
2017-11-29T16:12:44.896Z,11.20
2017-11-29T16:15:11.299Z,10.60
2017-11-29T16:17:37.914Z,9.30
2017-11-29T16:20:04.362Z,22.37
2017-11-29T16:22:30.802Z,21.03
2017-11-29T16:24:57.391Z,156.00
2017-11-29T16:27:23.832Z,24.80
2017-11-29T16:29:50.505Z,32.33
2017-11-29T16:32:16.944Z,27.33
2017-11-29T16:34:43.333Z,20.20
2017-11-29T16:37:10.014Z,15.50
2017-11-29T16:39:36.653Z,12.93
2017-11-29T16:42:03.293Z,20.47
2017-11-29T16:44:29.899Z,32.23
2017-11-29T16:46:56.314Z,17.63
2017-11-29T16:49:22.661Z,14.67
2017-11-29T16:51:49.200Z,14.60
2017-11-29T16:54:15.641Z,16.43
2017-11-29T16:56:42.055Z,19.13
2017-11-29T16:59:08.540Z,14.50
2017-11-29T17:01:35.032Z,15.70
2017-11-29T17:04:01.555Z,18.50
2017-11-29T17:06:28.240Z,18.97
2017-11-29T17:08:54.689Z,16.27
2017-11-29T17:11:21.282Z,17.73
2017-11-29T17:13:47.982Z,16.47
2017-11-29T17:16:14.438Z,16.67
2017-11-29T17:18:40.819Z,15.77
2017-11-29T17:21:07.305Z,15.17
2017-11-29T17:23:33.685Z,13.20
2017-11-29T17:26:00.326Z,15.83
2017-11-29T17:28:26.925Z,13.73
2017-11-29T17:30:53.366Z,14.30
2017-11-29T17:33:19.737Z,12.00
2017-11-29T17:35:46.222Z,13.87
2017-11-29T17:38:12.666Z,10.73
2017-11-29T17:40:39.108Z,13.33
2017-11-29T17:43:05.767Z,13.53
2017-11-29T17:45:32.199Z,14.35
2017-11-29T17:47:58.688Z,13.30
2017-11-29T17:50:25.076Z,12.53
2017-11-29T17:52:51.439Z,16.87
2017-11-29T17:55:17.878Z,15.57
2017-11-29T17:57:44.362Z,14.70
2017-11-29T18:00:10.586Z,15.30
2017-11-29T18:02:36.829Z,14.33
2017-11-29T18:05:03.262Z,14.87
2017-11-29T18:07:29.867Z,16.13
2017-11-29T18:09:56.333Z,15.30
2017-11-29T18:12:22.823Z,15.37
2017-11-29T18:14:49.268Z,15.87
2017-11-29T18:17:15.531Z,22.83
2017-11-29T18:19:42.144Z,20.10
2017-11-29T18:22:08.562Z,22.60
2017-11-29T18:24:35.006Z,27.23
2017-11-29T18:27:01.520Z,26.57
2017-11-29T18:29:27.969Z,25.60
2017-11-29T18:31:54.349Z,23.70
2017-11-29T18:34:20.752Z,16.77
2017-11-29T18:36:47.390Z,17.70
2017-11-29T18:39:13.842Z,19.40
2017-11-29T18:41:40.318Z,18.20
2017-11-29T18:44:06.765Z,17.20
2017-11-29T18:46:33.210Z,19.33
2017-11-29T18:48:59.725Z,30.20
2017-11-29T18:51:26.017Z,38.20
2017-11-29T18:53:52.553Z,25.80
2017-11-29T18:56:19.022Z,25.33
2017-11-29T18:58:45.473Z,20.60
2017-11-29T19:01:11.743Z,16.37
2017-11-29T19:03:38.361Z,20.07
2017-11-29T19:06:04.816Z,19.13
2017-11-29T19:08:31.321Z,24.53
2017-11-29T19:10:57.733Z,20.23
2017-11-29T19:13:24.108Z,24.53
2017-11-29T19:15:50.539Z,30.50
2017-11-29T19:18:17.166Z,24.23
2017-11-29T19:20:43.804Z,26.90
2017-11-29T19:23:10.461Z,25.97
2017-11-29T19:25:37.085Z,24.13
2017-11-29T19:28:03.749Z,25.17
2017-11-29T19:30:30.220Z,27.70
2017-11-29T19:32:56.462Z,24.20
2017-11-29T19:35:22.862Z,27.03
2017-11-29T19:37:49.345Z,25.43
2017-11-29T19:40:15.701Z,73.07
2017-11-29T19:42:42.337Z,54.93
2017-11-29T19:45:08.970Z,54.80
2017-11-29T19:47:35.408Z,40.30
2017-11-29T19:50:01.826Z,44.10
2017-11-29T19:52:28.483Z,40.70
2017-11-29T19:54:54.921Z,36.73
2017-11-29T19:57:21.528Z,31.43
2017-11-29T19:59:48.190Z,36.30
2017-11-29T20:02:14.424Z,29.60
2017-11-29T20:04:40.903Z,30.43
2017-11-29T20:07:07.871Z,28.37
2017-11-29T20:09:34.289Z,28.37
2017-11-29T20:12:00.729Z,32.20
2017-11-29T20:14:27.170Z,37.00
2017-11-29T20:16:53.608Z,41.77
2017-11-29T20:19:20.052Z,39.60
2017-11-29T20:21:46.708Z,34.53
2017-11-29T20:24:13.346Z,30.03
2017-11-29T20:26:39.986Z,27.97
2017-11-29T20:29:06.418Z,26.57
2017-11-29T20:31:32.851Z,25.30
2017-11-29T20:33:59.373Z,23.57
2017-11-29T20:36:25.893Z,22.80
2017-11-29T20:38:52.312Z,26.23
2017-11-29T20:41:18.586Z,27.97
2017-11-29T20:43:45.194Z,28.83
2017-11-29T20:46:11.613Z,24.60
2017-11-29T20:48:38.051Z,28.10
2017-11-29T20:51:04.469Z,39.97
2017-11-29T20:53:30.911Z,36.13
2017-11-29T20:55:57.375Z,25.67
2017-11-29T20:58:23.818Z,22.90
2017-11-29T21:00:50.310Z,21.00
2017-11-29T21:03:16.753Z,22.20
2017-11-29T21:05:43.178Z,22.03
2017-11-29T21:08:09.612Z,23.80
2017-11-29T21:10:36.058Z,22.43
2017-11-29T21:13:02.564Z,25.67
2017-11-29T21:15:29.010Z,26.97
2017-11-29T21:17:55.454Z,28.40
2017-11-29T21:20:21.867Z,28.60
2017-11-29T21:22:48.315Z,24.67
2017-11-29T21:25:14.752Z,24.57
2017-11-29T21:27:41.431Z,22.63
2017-11-29T21:30:08.073Z,21.20
2017-11-29T21:32:34.706Z,23.50
2017-11-29T21:35:01.350Z,21.90
2017-11-29T21:37:27.860Z,25.00
2017-11-29T21:39:54.275Z,22.93
2017-11-29T21:42:20.646Z,22.80
2017-11-29T21:44:47.033Z,29.93
2017-11-29T21:47:13.312Z,31.60
2017-11-29T21:49:39.922Z,29.80
2017-11-29T21:52:06.361Z,37.30
2017-11-29T21:54:32.611Z,37.87
2017-11-29T21:56:59.241Z,33.43
2017-11-29T21:59:25.497Z,24.97
2017-11-29T22:01:51.810Z,24.77
2017-11-29T22:04:18.295Z,24.27
2017-11-29T22:06:44.631Z,29.33
2017-11-29T22:09:11.081Z,29.97
2017-11-29T22:11:37.593Z,23.47
2017-11-29T22:14:04.038Z,24.13
2017-11-29T22:16:30.480Z,23.43
2017-11-29T22:18:57.142Z,25.30
2017-11-29T22:21:23.386Z,28.13
2017-11-29T22:23:50.003Z,27.57
2017-11-29T22:26:16.658Z,24.97
2017-11-29T22:28:43.312Z,23.00
2017-11-29T22:31:09.908Z,23.17
2017-11-29T22:33:36.420Z,24.60
2017-11-29T22:36:02.861Z,21.33
2017-11-29T22:38:29.237Z,20.70
2017-11-29T22:40:55.699Z,21.60
2017-11-29T22:43:22.101Z,21.17
2017-11-29T22:45:48.738Z,22.87
2017-11-29T22:48:15.369Z,23.83
2017-11-29T22:50:42.016Z,29.40
2017-11-29T22:53:08.654Z,31.00
2017-11-29T22:55:35.073Z,22.07
2017-11-29T22:58:01.317Z,23.70
2017-11-29T23:00:27.952Z,24.25
2017-11-29T23:02:54.592Z,21.53
2017-11-29T23:05:21.066Z,23.27
2017-11-29T23:07:47.522Z,28.13
2017-11-29T23:10:13.976Z,23.73
2017-11-29T23:12:40.482Z,22.60
2017-11-29T23:15:06.949Z,23.10
2017-11-29T23:17:33.602Z,20.83
2017-11-29T23:20:00.241Z,20.77
2017-11-29T23:22:26.777Z,22.00
2017-11-29T23:24:53.269Z,27.73
2017-11-29T23:27:19.682Z,26.90
2017-11-29T23:29:45.971Z,21.63
2017-11-29T23:32:12.461Z,24.97
2017-11-29T23:34:39.031Z,24.57
2017-11-29T23:37:05.269Z,26.40
2017-11-29T23:39:31.820Z,25.43
2017-11-29T23:41:58.169Z,28.07
2017-11-29T23:44:24.573Z,27.30
2017-11-29T23:46:51.193Z,25.70
2017-11-29T23:49:17.610Z,28.97
2017-11-29T23:51:44.051Z,42.57
2017-11-29T23:54:10.569Z,35.00
2017-11-29T23:56:37.005Z,30.20
2017-11-29T23:59:03.453Z,31.30
